sensor_id;sensor_type;location;lat;lon;timestamp;pressure;altitude;pressure_sealevel;temperature;humidity
64753;BME280;74649;52.358;17.020;2023-12-07T00:04:19;100846.88;;;7.96;45.29
64753;BME280;74649;52.358;17.020;2023-12-07T00:09:19;100856.50;;;7.96;45.24
64753;BME280;74649;52.358;17.020;2023-12-07T00:14:20;100866.16;;;7.95;45.40
64753;BME280;74649;52.358;17.020;2023-12-07T00:19:21;100860.94;;;7.94;45.40
64753;BME280;74649;52.358;17.020;2023-12-07T00:24:22;100857.47;;;7.90;45.40
64753;BME280;74649;52.358;17.020;2023-12-07T00:29:22;100861.84;;;7.90;45.33
64753;BME280;74649;52.358;17.020;2023-12-07T00:34:24;100859.25;;;7.88;45.36
64753;BME280;74649;52.358;17.020;2023-12-07T00:39:24;100862.78;;;7.86;45.50
64753;BME280;74649;52.358;17.020;2023-12-07T00:44:24;100870.69;;;7.84;45.36
64753;BME280;74649;52.358;17.020;2023-12-07T00:49:26;100874.22;;;7.83;45.45
64753;BME280;74649;52.358;17.020;2023-12-07T00:54:26;100866.34;;;7.82;45.43
64753;BME280;74649;52.358;17.020;2023-12-07T00:59:27;100869.91;;;7.79;45.46
64753;BME280;74649;52.358;17.020;2023-12-07T01:04:29;100877.78;;;7.78;45.43
64753;BME280;74649;52.358;17.020;2023-12-07T01:09:29;100888.31;;;7.76;45.48
64753;BME280;74649;52.358;17.020;2023-12-07T01:14:29;100886.53;;;7.75;45.34
64753;BME280;74649;52.358;17.020;2023-12-07T01:19:31;100884.84;;;7.72;45.42
64753;BME280;74649;52.358;17.020;2023-12-07T01:24:31;100881.34;;;7.72;45.65
64753;BME280;74649;52.358;17.020;2023-12-07T01:29:32;100885.75;;;7.70;45.50
64753;BME280;74649;52.358;17.020;2023-12-07T01:34:33;100893.66;;;7.67;45.50
64753;BME280;74649;52.358;17.020;2023-12-07T01:39:34;100888.41;;;7.67;45.61
64753;BME280;74649;52.358;17.020;2023-12-07T01:44:34;100897.19;;;7.66;45.56
64753;BME280;74649;52.358;17.020;2023-12-07T01:49:36;100901.56;;;7.64;45.67
64753;BME280;74649;52.358;17.020;2023-12-07T01:54:37;100901.59;;;7.62;45.45
64753;BME280;74649;52.358;17.020;2023-12-07T01:59:38;100897.25;;;7.60;45.56
64753;BME280;74649;52.358;17.020;2023-12-07T02:04:40;100895.50;;;7.59;45.67
64753;BME280;74649;52.358;17.020;2023-12-07T02:09:40;100895.53;;;7.57;45.67
64753;BME280;74649;52.358;17.020;2023-12-07T02:14:41;100897.28;;;7.57;45.59
64753;BME280;74649;52.358;17.020;2023-12-07T02:19:55;100899.06;;;7.55;45.73
64753;BME280;74649;52.358;17.020;2023-12-07T02:25:04;100911.31;;;7.54;45.65
64753;BME280;74649;52.358;17.020;2023-12-07T02:30:08;100903.47;;;7.53;45.62
64753;BME280;74649;52.358;17.020;2023-12-07T02:35:10;100910.50;;;7.51;45.69
64753;BME280;74649;52.358;17.020;2023-12-07T02:40:12;100902.63;;;7.49;45.71
64753;BME280;74649;52.358;17.020;2023-12-07T02:45:15;100906.16;;;7.48;45.40
64753;BME280;74649;52.358;17.020;2023-12-07T02:50:15;100900.03;;;7.46;45.68
64753;BME280;74649;52.358;17.020;2023-12-07T02:55:16;100910.56;;;7.44;45.67
64753;BME280;74649;52.358;17.020;2023-12-07T03:00:18;100906.19;;;7.43;45.80
64753;BME280;74649;52.358;17.020;2023-12-07T03:05:18;100904.47;;;7.41;45.60
64753;BME280;74649;52.358;17.020;2023-12-07T03:10:18;100914.13;;;7.40;45.76
64753;BME280;74649;52.358;17.020;2023-12-07T03:15:20;100920.25;;;7.39;45.84
64753;BME280;74649;52.358;17.020;2023-12-07T03:20:20;100924.66;;;7.37;45.93
64753;BME280;74649;52.358;17.020;2023-12-07T03:25:21;100922.03;;;7.36;45.85
64753;BME280;74649;52.358;17.020;2023-12-07T03:30:22;100935.16;;;7.36;45.98
64753;BME280;74649;52.358;17.020;2023-12-07T03:35:23;100941.31;;;7.35;45.90
64753;BME280;74649;52.358;17.020;2023-12-07T03:40:23;100957.94;;;7.34;45.97
64753;BME280;74649;52.358;17.020;2023-12-07T03:45:25;100958.84;;;7.31;45.62
64753;BME280;74649;52.358;17.020;2023-12-07T03:50:25;100956.22;;;7.31;45.76
64753;BME280;74649;52.358;17.020;2023-12-07T03:55:25;100961.47;;;7.30;45.84
64753;BME280;74649;52.358;17.020;2023-12-07T04:00:27;100962.34;;;7.27;45.80
64753;BME280;74649;52.358;17.020;2023-12-07T04:05:28;100964.13;;;7.25;46.02
64753;BME280;74649;52.358;17.020;2023-12-07T04:10:28;100970.25;;;7.24;46.05
64753;BME280;74649;52.358;17.020;2023-12-07T04:15:30;100973.75;;;7.23;45.99
64753;BME280;74649;52.358;17.020;2023-12-07T04:20:30;100976.38;;;7.23;46.00
64753;BME280;74649;52.358;17.020;2023-12-07T04:25:30;100969.41;;;7.22;46.04
64753;BME280;74649;52.358;17.020;2023-12-07T04:30:32;100965.03;;;7.21;46.06
64753;BME280;74649;52.358;17.020;2023-12-07T04:35:32;100971.16;;;7.20;45.92
64753;BME280;74649;52.358;17.020;2023-12-07T04:40:33;100968.56;;;7.19;46.13
64753;BME280;74649;52.358;17.020;2023-12-07T04:45:34;100966.81;;;7.18;46.02
64753;BME280;74649;52.358;17.020;2023-12-07T04:50:35;100975.56;;;7.17;46.10
64753;BME280;74649;52.358;17.020;2023-12-07T04:55:35;100972.09;;;7.14;46.14
64753;BME280;74649;52.358;17.020;2023-12-07T05:00:37;100980.78;;;7.20;46.05
64753;BME280;74649;52.358;17.020;2023-12-07T05:05:37;100966.88;;;7.94;46.19
64753;BME280;74649;52.358;17.020;2023-12-07T05:10:37;100967.88;;;9.58;45.89
64753;BME280;74649;52.358;17.020;2023-12-07T05:15:39;100969.91;;;11.07;45.82
64753;BME280;74649;52.358;17.020;2023-12-07T05:20:39;100968.69;;;12.18;46.19
64753;BME280;74649;52.358;17.020;2023-12-07T05:25:40;100973.06;;;13.04;46.58
64753;BME280;74649;52.358;17.020;2023-12-07T05:30:41;100985.38;;;13.82;47.01
64753;BME280;74649;52.358;17.020;2023-12-07T05:35:42;100993.66;;;14.46;47.01
64753;BME280;74649;52.358;17.020;2023-12-07T05:40:42;100991.53;;;14.99;46.49
64753;BME280;74649;52.358;17.020;2023-12-07T05:45:44;100993.00;;;15.48;46.35
64753;BME280;74649;52.358;17.020;2023-12-07T05:50:44;101002.44;;;15.96;46.60
64753;BME280;74649;52.358;17.020;2023-12-07T05:55:44;101006.00;;;16.36;46.09
64753;BME280;74649;52.358;17.020;2023-12-07T06:00:46;101000.59;;;16.75;45.94
64753;BME280;74649;52.358;17.020;2023-12-07T06:05:46;101000.53;;;17.12;45.75
64753;BME280;74649;52.358;17.020;2023-12-07T06:10:47;100999.69;;;17.46;45.44
64753;BME280;74649;52.358;17.020;2023-12-07T06:15:48;101009.50;;;17.80;45.40
64753;BME280;74649;52.358;17.020;2023-12-07T06:20:49;101002.47;;;18.13;45.42
64753;BME280;74649;52.358;17.020;2023-12-07T06:25:49;101007.97;;;18.42;44.79
64753;BME280;74649;52.358;17.020;2023-12-07T06:30:51;101010.72;;;18.74;44.97
64753;BME280;74649;52.358;17.020;2023-12-07T06:35:51;101015.16;;;19.05;44.49
64753;BME280;74649;52.358;17.020;2023-12-07T06:40:52;101023.41;;;19.32;44.44
64753;BME280;74649;52.358;17.020;2023-12-07T06:45:53;101027.22;;;19.58;44.40
64753;BME280;74649;52.358;17.020;2023-12-07T06:50:54;101030.25;;;19.67;43.97
64753;BME280;74649;52.358;17.020;2023-12-07T06:55:54;101036.69;;;19.79;43.47
64753;BME280;74649;52.358;17.020;2023-12-07T07:00:56;101040.13;;;19.35;44.10
64753;BME280;74649;52.358;17.020;2023-12-07T07:05:56;101047.44;;;18.37;44.41
64753;BME280;74649;52.358;17.020;2023-12-07T07:10:56;101055.34;;;17.54;44.46
64753;BME280;74649;52.358;17.020;2023-12-07T07:15:58;101063.78;;;16.92;44.60
64753;BME280;74649;52.358;17.020;2023-12-07T07:20:58;101061.63;;;16.42;45.02
64753;BME280;74649;52.358;17.020;2023-12-07T07:25:59;101069.69;;;16.01;45.13
64753;BME280;74649;52.358;17.020;2023-12-07T07:31:00;101065.78;;;15.68;45.15
64753;BME280;74649;52.358;17.020;2023-12-07T07:36:01;101081.16;;;15.39;44.84
64753;BME280;74649;52.358;17.020;2023-12-07T07:41:01;101076.84;;;15.15;45.34
64753;BME280;74649;52.358;17.020;2023-12-07T07:46:03;101085.56;;;14.95;45.21
64753;BME280;74649;52.358;17.020;2023-12-07T07:51:04;101082.75;;;14.76;44.80
64753;BME280;74649;52.358;17.020;2023-12-07T07:56:05;101081.56;;;14.61;45.17
64753;BME280;74649;52.358;17.020;2023-12-07T08:01:07;101082.94;;;14.48;44.93
64753;BME280;74649;52.358;17.020;2023-12-07T08:06:07;101083.44;;;14.34;45.24
64753;BME280;74649;52.358;17.020;2023-12-07T08:11:08;101084.91;;;14.18;44.91
64753;BME280;74649;52.358;17.020;2023-12-07T08:16:09;101078.69;;;14.19;44.74
64753;BME280;74649;52.358;17.020;2023-12-07T08:21:18;101079.41;;;15.60;44.00
64753;BME280;74649;52.358;17.020;2023-12-07T08:26:19;101072.25;;;17.00;43.39
64753;BME280;74649;52.358;17.020;2023-12-07T08:31:20;101073.81;;;18.10;43.61
64753;BME280;74649;52.358;17.020;2023-12-07T08:36:21;101079.09;;;18.94;43.35
64753;BME280;74649;52.358;17.020;2023-12-07T08:41:21;101084.06;;;19.63;43.10
64753;BME280;74649;52.358;17.020;2023-12-07T08:46:23;101086.78;;;20.21;43.20
64753;BME280;74649;52.358;17.020;2023-12-07T08:51:23;101078.50;;;20.69;42.68
64753;BME280;74649;52.358;17.020;2023-12-07T08:56:23;101082.53;;;20.03;43.19
64753;BME280;74649;52.358;17.020;2023-12-07T09:01:25;101090.47;;;18.97;43.04
64753;BME280;74649;52.358;17.020;2023-12-07T09:06:25;101086.28;;;18.10;43.36
64753;BME280;74649;52.358;17.020;2023-12-07T09:11:27;101091.97;;;17.33;43.15
64753;BME280;74649;52.358;17.020;2023-12-07T09:16:29;101099.38;;;16.70;43.00
64753;BME280;74649;52.358;17.020;2023-12-07T09:21:29;101097.22;;;16.60;42.65
64753;BME280;74649;52.358;17.020;2023-12-07T09:26:29;101096.22;;;17.55;42.08
64753;BME280;74649;52.358;17.020;2023-12-07T09:31:31;101102.34;;;18.43;41.35
64753;BME280;74649;52.358;17.020;2023-12-07T09:36:31;101102.72;;;19.01;41.28
64753;BME280;74649;52.358;17.020;2023-12-07T09:41:32;101086.03;;;19.75;41.35
64753;BME280;74649;52.358;17.020;2023-12-07T09:46:34;101089.78;;;20.45;41.28
64753;BME280;74649;52.358;17.020;2023-12-07T09:51:35;101084.50;;;21.01;41.38
64753;BME280;74649;52.358;17.020;2023-12-07T09:56:36;101088.50;;;21.49;41.83
64753;BME280;74649;52.358;17.020;2023-12-07T10:01:37;101072.88;;;21.81;41.84
64753;BME280;74649;52.358;17.020;2023-12-07T10:06:42;101069.97;;;21.84;41.41
64753;BME280;74649;52.358;17.020;2023-12-07T10:11:43;101069.59;;;21.50;41.54
64753;BME280;74649;52.358;17.020;2023-12-07T10:16:53;101087.50;;;20.39;42.09
64753;BME280;74649;52.358;17.020;2023-12-07T10:21:54;101085.88;;;19.47;42.89
64753;BME280;74649;52.358;17.020;2023-12-07T10:26:54;101089.78;;;18.78;42.81
64753;BME280;74649;52.358;17.020;2023-12-07T10:32:01;101094.63;;;18.21;42.91
64753;BME280;74649;52.358;17.020;2023-12-07T10:37:01;101086.38;;;17.74;43.57
64753;BME280;74649;52.358;17.020;2023-12-07T10:42:02;101084.75;;;17.35;43.29
64753;BME280;74649;52.358;17.020;2023-12-07T10:47:07;101082.84;;;17.01;43.46
64753;BME280;74649;52.358;17.020;2023-12-07T10:52:12;101084.25;;;16.71;43.54
64753;BME280;74649;52.358;17.020;2023-12-07T10:57:13;101092.53;;;16.46;44.09
64753;BME280;74649;52.358;17.020;2023-12-07T11:02:15;101089.09;;;16.23;43.68
64753;BME280;74649;52.358;17.020;2023-12-07T11:07:20;101086.50;;;16.02;44.18
64753;BME280;74649;52.358;17.020;2023-12-07T11:12:28;101083.75;;;15.83;44.36
64753;BME280;74649;52.358;17.020;2023-12-07T11:17:47;101088.13;;;15.64;43.87
64753;BME280;74649;52.358;17.020;2023-12-07T11:22:48;101079.84;;;15.49;44.05
64753;BME280;74649;52.358;17.020;2023-12-07T11:28:00;101079.63;;;15.34;44.08
64753;BME280;74649;52.358;17.020;2023-12-07T11:33:03;101076.59;;;15.21;44.57
64753;BME280;74649;52.358;17.020;2023-12-07T11:38:05;101083.31;;;15.08;44.07
64753;BME280;74649;52.358;17.020;2023-12-07T11:43:06;101087.34;;;14.96;44.18
64753;BME280;74649;52.358;17.020;2023-12-07T11:48:11;101073.59;;;14.83;44.63
64753;BME280;74649;52.358;17.020;2023-12-07T11:53:12;101066.94;;;14.73;44.59
64753;BME280;74649;52.358;17.020;2023-12-07T11:58:12;101069.13;;;14.62;44.68
64753;BME280;74649;52.358;17.020;2023-12-07T12:03:14;101061.53;;;14.53;44.55
64753;BME280;74649;52.358;17.020;2023-12-07T12:08:15;101064.47;;;14.45;44.67
64753;BME280;74649;52.358;17.020;2023-12-07T12:13:16;101069.22;;;14.35;44.76
64753;BME280;74649;52.358;17.020;2023-12-07T12:18:18;101069.47;;;14.29;44.69
64753;BME280;74649;52.358;17.020;2023-12-07T12:23:18;101076.66;;;14.26;44.16
64753;BME280;74649;52.358;17.020;2023-12-07T12:28:19;101076.03;;;14.19;44.26
64753;BME280;74649;52.358;17.020;2023-12-07T12:33:21;101065.66;;;14.13;43.91
64753;BME280;74649;52.358;17.020;2023-12-07T12:38:22;101067.59;;;14.08;43.85
64753;BME280;74649;52.358;17.020;2023-12-07T12:43:22;101072.31;;;14.00;43.77
64753;BME280;74649;52.358;17.020;2023-12-07T12:48:24;101078.81;;;13.91;43.86
64753;BME280;74649;52.358;17.020;2023-12-07T12:53:27;101080.09;;;13.78;43.92
64753;BME280;74649;52.358;17.020;2023-12-07T12:58:27;101075.19;;;13.67;44.38
64753;BME280;74649;52.358;17.020;2023-12-07T13:03:29;101076.41;;;13.57;44.51
64753;BME280;74649;52.358;17.020;2023-12-07T13:08:29;101077.59;;;13.49;44.50
64753;BME280;74649;52.358;17.020;2023-12-07T13:13:29;101084.97;;;13.39;44.30
64753;BME280;74649;52.358;17.020;2023-12-07T13:18:31;101087.91;;;13.30;44.47
64753;BME280;74649;52.358;17.020;2023-12-07T13:23:31;101082.91;;;13.21;44.70
64753;BME280;74649;52.358;17.020;2023-12-07T13:28:32;101089.31;;;13.14;44.69
64753;BME280;74649;52.358;17.020;2023-12-07T13:33:34;101097.53;;;13.06;44.70
64753;BME280;74649;52.358;17.020;2023-12-07T13:38:34;101096.91;;;12.98;44.84
64753;BME280;74649;52.358;17.020;2023-12-07T13:43:35;101099.81;;;12.89;44.94
64753;BME280;74649;52.358;17.020;2023-12-07T13:48:36;101101.72;;;12.84;44.71
64753;BME280;74649;52.358;17.020;2023-12-07T13:53:37;101101.91;;;12.77;44.86
64753;BME280;74649;52.358;17.020;2023-12-07T13:58:37;101105.63;;;12.70;44.74
64753;BME280;74649;52.358;17.020;2023-12-07T14:03:39;101109.28;;;12.66;45.08
64753;BME280;74649;52.358;17.020;2023-12-07T14:08:39;101110.41;;;12.58;44.90
64753;BME280;74649;52.358;17.020;2023-12-07T14:13:39;101118.50;;;12.53;44.87
64753;BME280;74649;52.358;17.020;2023-12-07T14:18:41;101121.28;;;12.47;44.97
64753;BME280;74649;52.358;17.020;2023-12-07T14:23:41;101117.03;;;12.41;45.13
64753;BME280;74649;52.358;17.020;2023-12-07T14:28:42;101121.66;;;12.35;44.93
64753;BME280;74649;52.358;17.020;2023-12-07T14:33:44;101129.72;;;12.30;45.19
64753;BME280;74649;52.358;17.020;2023-12-07T14:38:44;101127.25;;;12.24;45.17
64753;BME280;74649;52.358;17.020;2023-12-07T14:43:44;101137.03;;;12.21;45.14
64753;BME280;74649;52.358;17.020;2023-12-07T14:48:46;101131.91;;;12.14;45.30
64753;BME280;74649;52.358;17.020;2023-12-07T14:53:46;101137.34;;;12.10;45.28
64753;BME280;74649;52.358;17.020;2023-12-07T14:58:47;101133.06;;;12.04;45.30
64753;BME280;74649;52.358;17.020;2023-12-07T15:03:48;101139.38;;;11.99;45.21
64753;BME280;74649;52.358;17.020;2023-12-07T15:08:49;101136.84;;;11.94;45.12
64753;BME280;74649;52.358;17.020;2023-12-07T15:13:49;101138.69;;;11.91;45.46
64753;BME280;74649;52.358;17.020;2023-12-07T15:18:51;101138.78;;;11.88;45.11
64753;BME280;74649;52.358;17.020;2023-12-07T15:23:51;101138.91;;;11.83;45.22
64753;BME280;74649;52.358;17.020;2023-12-07T15:28:51;101145.19;;;11.79;45.12
64753;BME280;74649;52.358;17.020;2023-12-07T15:33:53;101137.38;;;11.74;45.30
64753;BME280;74649;52.358;17.020;2023-12-07T15:38:53;101134.84;;;11.70;45.31
64753;BME280;74649;52.358;17.020;2023-12-07T15:43:54;101131.44;;;11.65;45.18
64753;BME280;74649;52.358;17.020;2023-12-07T15:48:55;101142.13;;;11.60;45.28
64753;BME280;74649;52.358;17.020;2023-12-07T15:53:56;101129.94;;;11.55;45.29
64753;BME280;74649;52.358;17.020;2023-12-07T15:58:56;101137.91;;;11.51;45.13
64753;BME280;74649;52.358;17.020;2023-12-07T16:03:58;101142.41;;;11.46;45.43
64753;BME280;74649;52.358;17.020;2023-12-07T16:08:58;101139.88;;;11.42;45.47
64753;BME280;74649;52.358;17.020;2023-12-07T16:13:58;101138.22;;;11.38;45.41
64753;BME280;74649;52.358;17.020;2023-12-07T16:19:00;101141.84;;;11.34;45.50
64753;BME280;74649;52.358;17.020;2023-12-07T16:24:00;101142.81;;;11.30;45.31
64753;BME280;74649;52.358;17.020;2023-12-07T16:29:01;101144.69;;;11.25;45.24
64753;BME280;74649;52.358;17.020;2023-12-07T16:34:04;101143.91;;;11.21;45.31
64753;BME280;74649;52.358;17.020;2023-12-07T16:39:05;101140.50;;;11.16;45.32
64753;BME280;74649;52.358;17.020;2023-12-07T16:44:05;101145.84;;;11.13;45.42
64753;BME280;74649;52.358;17.020;2023-12-07T16:49:07;101145.09;;;11.08;45.64
64753;BME280;74649;52.358;17.020;2023-12-07T16:54:07;101146.91;;;11.04;45.36
64753;BME280;74649;52.358;17.020;2023-12-07T16:59:08;101152.25;;;11.01;45.37
64753;BME280;74649;52.358;17.020;2023-12-07T17:04:09;101160.28;;;10.97;45.37
64753;BME280;74649;52.358;17.020;2023-12-07T17:09:10;101155.94;;;10.94;45.35
64753;BME280;74649;52.358;17.020;2023-12-07T17:14:10;101148.09;;;10.89;45.48
64753;BME280;74649;52.358;17.020;2023-12-07T17:19:12;101142.91;;;10.86;45.70
64753;BME280;74649;52.358;17.020;2023-12-07T17:24:12;101147.38;;;10.83;45.53
64753;BME280;74649;52.358;17.020;2023-12-07T17:29:13;101150.13;;;10.78;45.64
64753;BME280;74649;52.358;17.020;2023-12-07T17:34:14;101158.06;;;10.77;45.73
64753;BME280;74649;52.358;17.020;2023-12-07T17:39:15;101153.75;;;10.73;45.56
64753;BME280;74649;52.358;17.020;2023-12-07T17:44:15;101154.72;;;10.69;45.54
64753;BME280;74649;52.358;17.020;2023-12-07T17:49:17;101153.91;;;10.65;45.78
64753;BME280;74649;52.358;17.020;2023-12-07T17:54:17;101153.09;;;10.62;45.91
64753;BME280;74649;52.358;17.020;2023-12-07T17:59:17;101146.97;;;10.59;45.69
64753;BME280;74649;52.358;17.020;2023-12-07T18:04:19;101148.78;;;10.56;45.87
64753;BME280;74649;52.358;17.020;2023-12-07T18:09:19;101148.00;;;10.52;45.82
64753;BME280;74649;52.358;17.020;2023-12-07T18:14:20;101146.31;;;10.48;45.88
64753;BME280;74649;52.358;17.020;2023-12-07T18:19:21;101147.25;;;10.46;45.94
64753;BME280;74649;52.358;17.020;2023-12-07T18:24:22;101151.72;;;10.42;45.72
64753;BME280;74649;52.358;17.020;2023-12-07T18:29:22;101160.56;;;10.40;45.91
64753;BME280;74649;52.358;17.020;2023-12-07T18:34:24;101150.09;;;10.35;45.96
64753;BME280;74649;52.358;17.020;2023-12-07T18:39:26;101155.41;;;10.34;45.80
64753;BME280;74649;52.358;17.020;2023-12-07T18:44:26;101150.22;;;10.29;45.95
64753;BME280;74649;52.358;17.020;2023-12-07T18:49:28;101143.22;;;10.26;45.93
64753;BME280;74649;52.358;17.020;2023-12-07T18:54:28;101159.13;;;10.23;45.71
64753;BME280;74649;52.358;17.020;2023-12-07T18:59:29;101181.13;;;10.21;45.85
64753;BME280;74649;52.358;17.020;2023-12-07T19:04:30;101196.13;;;10.19;45.91
64753;BME280;74649;52.358;17.020;2023-12-07T19:09:31;101175.94;;;10.16;45.85
64753;BME280;74649;52.358;17.020;2023-12-07T19:14:31;101184.78;;;10.14;46.00
64753;BME280;74649;52.358;17.020;2023-12-07T19:19:33;101192.72;;;10.11;45.95
64753;BME280;74649;52.358;17.020;2023-12-07T19:24:33;101195.41;;;10.08;46.04
64753;BME280;74649;52.358;17.020;2023-12-07T19:29:33;101187.53;;;10.05;46.06
64753;BME280;74649;52.358;17.020;2023-12-07T19:34:35;101186.69;;;10.03;45.91
64753;BME280;74649;52.358;17.020;2023-12-07T19:39:35;101184.97;;;10.00;45.78
64753;BME280;74649;52.358;17.020;2023-12-07T19:44:36;101189.44;;;9.96;46.00
64753;BME280;74649;52.358;17.020;2023-12-07T19:49:37;101183.31;;;9.94;45.91
64753;BME280;74649;52.358;17.020;2023-12-07T19:54:38;101187.75;;;9.92;46.03
64753;BME280;74649;52.358;17.020;2023-12-07T19:59:38;101178.13;;;9.90;46.03
64753;BME280;74649;52.358;17.020;2023-12-07T20:04:40;101176.41;;;9.87;46.09
64753;BME280;74649;52.358;17.020;2023-12-07T20:09:40;101180.88;;;9.84;46.13
64753;BME280;74649;52.358;17.020;2023-12-07T20:14:40;101165.06;;;9.82;46.06
64753;BME280;74649;52.358;17.020;2023-12-07T20:19:42;101157.22;;;9.79;45.96
64753;BME280;74649;52.358;17.020;2023-12-07T20:24:42;101156.41;;;9.76;46.04
64753;BME280;74649;52.358;17.020;2023-12-07T20:29:42;101148.56;;;9.73;46.01
64753;BME280;74649;52.358;17.020;2023-12-07T20:34:44;101149.44;;;9.72;45.96
64753;BME280;74649;52.358;17.020;2023-12-07T20:39:45;101161.78;;;9.70;46.09
64753;BME280;74649;52.358;17.020;2023-12-07T20:44:45;101147.78;;;9.66;45.93
64753;BME280;74649;52.358;17.020;2023-12-07T20:49:47;101135.50;;;9.63;46.11
64753;BME280;74649;52.358;17.020;2023-12-07T20:54:47;101118.84;;;9.61;46.03
64753;BME280;74649;52.358;17.020;2023-12-07T20:59:47;101125.91;;;9.59;46.07
64753;BME280;74649;52.358;17.020;2023-12-07T21:04:49;101124.19;;;9.57;46.23
64753;BME280;74649;52.358;17.020;2023-12-07T21:09:49;101116.34;;;9.54;46.04
64753;BME280;74649;52.358;17.020;2023-12-07T21:14:50;101121.66;;;9.52;46.04
64753;BME280;74649;52.358;17.020;2023-12-07T21:19:52;101115.53;;;9.50;46.26
64753;BME280;74649;52.358;17.020;2023-12-07T21:24:52;101107.66;;;9.49;46.17
64753;BME280;74649;52.358;17.020;2023-12-07T21:29:52;101091.91;;;9.46;46.15
64753;BME280;74649;52.358;17.020;2023-12-07T21:34:54;101083.16;;;9.44;46.00
64753;BME280;74649;52.358;17.020;2023-12-07T21:39:54;101085.84;;;9.41;46.25
64753;BME280;74649;52.358;17.020;2023-12-07T21:44:54;101092.91;;;9.39;46.16
64753;BME280;74649;52.358;17.020;2023-12-07T21:49:56;101087.66;;;9.37;46.15
64753;BME280;74649;52.358;17.020;2023-12-07T21:54:57;101081.53;;;9.35;46.31
64753;BME280;74649;52.358;17.020;2023-12-07T21:59:57;101084.22;;;9.33;46.02
64753;BME280;74649;52.358;17.020;2023-12-07T22:04:59;101083.38;;;9.31;46.23
64753;BME280;74649;52.358;17.020;2023-12-07T22:09:59;101083.41;;;9.28;46.24
64753;BME280;74649;52.358;17.020;2023-12-07T22:14:59;101073.78;;;9.27;46.08
64753;BME280;74649;52.358;17.020;2023-12-07T22:20:01;101065.03;;;9.25;46.42
64753;BME280;74649;52.358;17.020;2023-12-07T22:25:01;101057.19;;;9.22;46.28
64753;BME280;74649;52.358;17.020;2023-12-07T22:30:02;101071.25;;;9.21;46.11
64753;BME280;74649;52.358;17.020;2023-12-07T22:35:04;101066.91;;;9.19;46.38
64753;BME280;74649;52.358;17.020;2023-12-07T22:40:06;101070.41;;;9.16;46.35
64753;BME280;74649;52.358;17.020;2023-12-07T22:45:08;101083.59;;;9.15;46.16
64753;BME280;74649;52.358;17.020;2023-12-07T22:50:10;101083.63;;;9.13;46.26
64753;BME280;74649;52.358;17.020;2023-12-07T22:55:10;101081.91;;;9.11;46.40
64753;BME280;74649;52.358;17.020;2023-12-07T23:00:11;101081.03;;;9.10;46.28
64753;BME280;74649;52.358;17.020;2023-12-07T23:05:13;101077.56;;;9.08;46.29
64753;BME280;74649;52.358;17.020;2023-12-07T23:10:14;101065.31;;;9.06;46.47
64753;BME280;74649;52.358;17.020;2023-12-07T23:15:14;101055.69;;;9.05;46.35
64753;BME280;74649;52.358;17.020;2023-12-07T23:20:16;101056.59;;;9.02;46.44
64753;BME280;74649;52.358;17.020;2023-12-07T23:25:17;101054.88;;;8.99;46.48
64753;BME280;74649;52.358;17.020;2023-12-07T23:30:17;101059.28;;;8.99;46.39
64753;BME280;74649;52.358;17.020;2023-12-07T23:35:19;101066.34;;;8.97;46.46
64753;BME280;74649;52.358;17.020;2023-12-07T23:40:19;101047.97;;;8.94;46.28
64753;BME280;74649;52.358;17.020;2023-12-07T23:45:19;101056.75;;;8.93;46.43
64753;BME280;74649;52.358;17.020;2023-12-07T23:50:21;101062.91;;;8.92;46.54
64753;BME280;74649;52.358;17.020;2023-12-07T23:55:21;101060.31;;;8.89;46.47
